Ava Foss — WDF5779 — position and weather

sailwx.info

Track history (hours):
 
Tides and Currents Weather Stations Pressure Air Temp Water Temp Dewpoint Dewpoint Depression Visibility Wind Speed Wind Dir Waves Ship Positions

Ava Foss

Owner: Foss Maritime Company, Seattle, WA. More information available from US FCC via Universal Licensing System and Coast Guard Vessel Documentation Center.

Last reported at 2015-Aug-28 21:23 UTC. Time now 2015-Aug-29 12:39 UTC.
Position N 33°52' W 118°26'.

Length 10 m; draft 2.5 m.

Type: Passenger vessel. MMSI: 367467120.

Date/timePositionNaut miles runAvg speedWind from/ knotsBaromVisibWave heightAir tempDewpointWater temp
2015-Aug-28 21:23N 33°52' W 118°26'2 0.6
2015-Aug-28 17:18N 33°54' W 118°27'0 0.2
2015-Aug-28 16:22N 33°54' W 118°27'3 1.4
2015-Aug-28 14:21N 33°53' W 118°30'6 0.6
2015-Aug-28 05:28N 33°51' W 118°24'0 0.0
2015-Aug-28 03:12N 33°51' W 118°24'0 0.0
2015-Aug-28 02:20N 33°51' W 118°24'5 0.7
2015-Aug-27 18:26N 33°55' W 118°27'5 2.3
2015-Aug-27 16:07N 33°51' W 118°24'0 0.0
2015-Aug-27 15:26N 33°51' W 118°24'5 5.5
2015-Aug-27 14:29N 33°55' W 118°27'2 1.7
2015-Aug-27 13:32N 33°54' W 118°29'5 5.2
2015-Aug-27 12:32N 33°51' W 118°24'4 0.7
2015-Aug-27 06:26N 33°55' W 118°27'5 4.6
2015-Aug-27 05:20N 33°51' W 118°24'0 0.0
2015-Aug-27 04:31N 33°51' W 118°24'0 0.0
2015-Aug-27 03:26N 33°51' W 118°24'0 0.0
2015-Aug-27 02:33N 33°51' W 118°24'0 0.0
2015-Aug-27 01:33N 33°51' W 118°24'6 0.7
2015-Aug-26 16:33N 33°54' W 118°29'6 2.7
2015-Aug-26 14:21N 33°51' W 118°24'0 0.2
2015-Aug-26 13:33N 33°50' W 118°24'0 0.2
2015-Aug-26 12:30N 33°51' W 118°24'0 0.0
2015-Aug-26 11:29N 33°51' W 118°24'0 0.0
2015-Aug-26 05:15N 33°51' W 118°24'0 0.0
2015-Aug-26 04:32N 33°51' W 118°24'0 0.0
2015-Aug-26 03:33N 33°51' W 118°24'0 0.0
2015-Aug-26 02:33N 33°51' W 118°24'0 0.0
2015-Aug-26 01:33N 33°51' W 118°24'0 0.0
2015-Aug-26 00:33N 33°51' W 118°24'0 0.0
2015-Aug-25 22:33N 33°51' W 118°24'0 0.1
2015-Aug-25 21:20N 33°51' W 118°24'5 6.4
2015-Aug-25 20:32N 33°55' W 118°27'4 3.9
2015-Aug-25 19:33N 33°51' W 118°25'2 1.5
2015-Aug-25 18:33N 33°51' W 118°24'2 1.6
2015-Aug-25 17:31N 33°52' W 118°25'3 1.0
2015-Aug-25 14:20N 33°54' W 118°27'5 0.8
2015-Aug-25 08:07N 33°51' W 118°24'5 7.0
2015-Aug-25 07:22N 33°55' W 118°27'5 2.4
2015-Aug-25 05:12N 33°51' W 118°24'0 0.5
2015-Aug-25 04:21N 33°51' W 118°24'0 0.4
2015-Aug-25 03:23N 33°51' W 118°24'1 0.9
2015-Aug-25 02:34N 33°51' W 118°24'1 0.6
2015-Aug-25 01:16N 33°51' W 118°24'2 0.8
2015-Aug-24 22:32N 33°52' W 118°25'2 2.1
2015-Aug-24 21:28N 33°51' W 118°24'0 0.0
2015-Aug-24 20:31N 33°51' W 118°24'5 5.0
2015-Aug-24 19:28N 33°55' W 118°27'3 1.7
2015-Aug-24 17:33N 33°52' W 118°25'3 3.0
2015-Aug-24 16:33N 33°54' W 118°27'5 2.2
2015-Aug-24 14:15N 33°50' W 118°24'3 4.0
2015-Aug-24 13:33N 33°51' W 118°27'3 0.3
2015-Aug-24 04:19N 33°51' W 118°24'1 0.7
2015-Aug-24 03:33N 33°51' W 118°24'1 0.5
2015-Aug-24 02:31N 33°51' W 118°24'0 0.0
2015-Aug-24 01:33N 33°51' W 118°24'0 0.0
2015-Aug-24 00:32N 33°51' W 118°24'6 4.7
2015-Aug-23 23:19N 33°52' W 118°30'6 6.1
2015-Aug-23 22:23N 33°51' W 118°24'0 0.0
2015-Aug-23 21:23N 33°51' W 118°24'0 0.0
2015-Aug-23 20:32N 33°51' W 118°24'0 0.0
2015-Aug-23 19:17N 33°51' W 118°24'0 0.0
2015-Aug-23 18:23N 33°51' W 118°24'0 0.0
2015-Aug-23 17:29N 33°51' W 118°24'0 0.0
2015-Aug-23 16:17N 33°51' W 118°24'0 0.0
2015-Aug-23 15:11N 33°51' W 118°24'0 0.0
2015-Aug-23 14:11N 33°51' W 118°24'0 0.0
2015-Aug-23 13:32N 33°51' W 118°24'0 0.0
2015-Aug-23 12:29N 33°51' W 118°24'0 0.0
2015-Aug-23 11:05N 33°51' W 118°24'0 0.0
2015-Aug-23 02:30N 33°51' W 118°24'5 5.5
2015-Aug-23 01:33N 33°55' W 118°27'5 1.2
2015-Aug-22 21:20N 33°51' W 118°24'5 6.0
2015-Aug-22 20:32N 33°54' W 118°27'0 0.0
2015-Aug-22 16:18N 33°54' W 118°27'1 0.3
2015-Aug-22 14:22N 33°54' W 118°27'4 0.8
2015-Aug-22 09:26N 33°51' W 118°24'0 0.0
2015-Aug-22 08:32N 33°51' W 118°24'0 0.0
2015-Aug-22 07:26N 33°51' W 118°24'0 0.0
2015-Aug-22 04:20N 33°51' W 118°24'0 0.0
2015-Aug-22 01:28N 33°51' W 118°24'0 0.0
2015-Aug-22 00:13N 33°51' W 118°24'0 0.0
2015-Aug-21 23:31N 33°51' W 118°24'5 5.0
2015-Aug-21 22:28N 33°54' W 118°29'5 4.9
2015-Aug-21 21:33N 33°51' W 118°24'5 4.6
2015-Aug-21 20:33N 33°55' W 118°27'5 5.1
2015-Aug-21 19:31N 33°51' W 118°24'0 0.0
2015-Aug-21 18:25N 33°51' W 118°24'0 0.0
2015-Aug-21 12:25N 33°51' W 118°24'0 0.0
2015-Aug-21 11:19N 33°51' W 118°24'0 0.0
2015-Aug-21 10:31N 33°51' W 118°24'0 0.0
2015-Aug-21 03:13N 33°51' W 118°24'5 5.3
2015-Aug-21 02:19N 33°54' W 118°27'0 0.1
2015-Aug-20 20:32N 33°55' W 118°27'2 2.0
2015-Aug-20 19:34N 33°53' W 118°26'3 3.2
2015-Aug-20 18:32N 33°51' W 118°24'5 4.8
2015-Aug-20 17:24N 33°54' W 118°29'5 6.2
2015-Aug-20 16:33N 33°51' W 118°24'6 6.2
2015-Aug-20 15:33N 33°54' W 118°29'6 3.1
2015-Aug-20 13:33N 33°51' W 118°24'0 0.0
2015-Aug-20 12:05N 33°51' W 118°24'0 0.0
2015-Aug-20 11:29N 33°51' W 118°24'0 0.0
2015-Aug-20 10:32N 33°51' W 118°24'0 0.0
2015-Aug-20 09:20N 33°51' W 118°24'0 0.0
2015-Aug-20 08:26N 33°51' W 118°24'0 0.0
2015-Aug-20 07:26N 33°51' W 118°24'0 0.0
2015-Aug-20 06:32N 33°51' W 118°24'0 0.0
2015-Aug-20 05:23N 33°51' W 118°24'0 0.0
2015-Aug-19 23:32N 33°51' W 118°24'0 0.0
2015-Aug-19 22:08N 33°51' W 118°24'0 0.0
2015-Aug-19 21:20N 33°51' W 118°24'0 0.0
2015-Aug-19 20:14N 33°51' W 118°24'0 0.0
2015-Aug-19 19:29N 33°51' W 118°24'0 0.5
2015-Aug-19 18:33N 33°51' W 118°24'0 0.4
2015-Aug-19 17:29N 33°51' W 118°24'0 0.0
2015-Aug-19 16:33N 33°51' W 118°24'3 2.6
2015-Aug-19 15:33N 33°52' W 118°25'4 0.2
2015-Aug-18 22:21N 33°54' W 118°29'  
Track history (hours):
 
Tides and Currents Weather Stations Pressure Air Temp Water Temp Dewpoint Dewpoint Depression Visibility Wind Speed Wind Dir Waves Ship Positions

Ava Foss

Owner: Foss Maritime Company, Seattle, WA. More information available from US FCC via Universal Licensing System and Coast Guard Vessel Documentation Center.

Last reported at 2015-Aug-28 21:23 UTC. Time now 2015-Aug-29 12:39 UTC.
Position N 33°52' W 118°26'.

Length 10 m; draft 2.5 m.

Type: Passenger vessel. MMSI: 367467120.

Date/timePositionNaut miles runAvg speedWind from/ knotsBaromVisibWave heightAir tempDewpointWater temp
2015-Aug-28 21:23N 33°52' W 118°26'2 0.6
2015-Aug-28 17:18N 33°54' W 118°27'0 0.2
2015-Aug-28 16:22N 33°54' W 118°27'3 1.4
2015-Aug-28 14:21N 33°53' W 118°30'6 0.6
2015-Aug-28 05:28N 33°51' W 118°24'0 0.0
2015-Aug-28 03:12N 33°51' W 118°24'0 0.0
2015-Aug-28 02:20N 33°51' W 118°24'5 0.7
2015-Aug-27 18:26N 33°55' W 118°27'5 2.3
2015-Aug-27 16:07N 33°51' W 118°24'0 0.0
2015-Aug-27 15:26N 33°51' W 118°24'5 5.5
2015-Aug-27 14:29N 33°55' W 118°27'2 1.7
2015-Aug-27 13:32N 33°54' W 118°29'5 5.2
2015-Aug-27 12:32N 33°51' W 118°24'4 0.7
2015-Aug-27 06:26N 33°55' W 118°27'5 4.6
2015-Aug-27 05:20N 33°51' W 118°24'0 0.0
2015-Aug-27 04:31N 33°51' W 118°24'0 0.0
2015-Aug-27 03:26N 33°51' W 118°24'0 0.0
2015-Aug-27 02:33N 33°51' W 118°24'0 0.0
2015-Aug-27 01:33N 33°51' W 118°24'6 0.7
2015-Aug-26 16:33N 33°54' W 118°29'6 2.7
2015-Aug-26 14:21N 33°51' W 118°24'0 0.2
2015-Aug-26 13:33N 33°50' W 118°24'0 0.2
2015-Aug-26 12:30N 33°51' W 118°24'0 0.0
2015-Aug-26 11:29N 33°51' W 118°24'0 0.0
2015-Aug-26 05:15N 33°51' W 118°24'0 0.0
2015-Aug-26 04:32N 33°51' W 118°24'0 0.0
2015-Aug-26 03:33N 33°51' W 118°24'0 0.0
2015-Aug-26 02:33N 33°51' W 118°24'0 0.0
2015-Aug-26 01:33N 33°51' W 118°24'0 0.0
2015-Aug-26 00:33N 33°51' W 118°24'0 0.0
2015-Aug-25 22:33N 33°51' W 118°24'0 0.1
2015-Aug-25 21:20N 33°51' W 118°24'5 6.4
2015-Aug-25 20:32N 33°55' W 118°27'4 3.9
2015-Aug-25 19:33N 33°51' W 118°25'2 1.5
2015-Aug-25 18:33N 33°51' W 118°24'2 1.6
2015-Aug-25 17:31N 33°52' W 118°25'3 1.0
2015-Aug-25 14:20N 33°54' W 118°27'5 0.8
2015-Aug-25 08:07N 33°51' W 118°24'5 7.0
2015-Aug-25 07:22N 33°55' W 118°27'5 2.4
2015-Aug-25 05:12N 33°51' W 118°24'0 0.5
2015-Aug-25 04:21N 33°51' W 118°24'0 0.4
2015-Aug-25 03:23N 33°51' W 118°24'1 0.9
2015-Aug-25 02:34N 33°51' W 118°24'1 0.6
2015-Aug-25 01:16N 33°51' W 118°24'2 0.8
2015-Aug-24 22:32N 33°52' W 118°25'2 2.1
2015-Aug-24 21:28N 33°51' W 118°24'0 0.0
2015-Aug-24 20:31N 33°51' W 118°24'5 5.0
2015-Aug-24 19:28N 33°55' W 118°27'3 1.7
2015-Aug-24 17:33N 33°52' W 118°25'3 3.0
2015-Aug-24 16:33N 33°54' W 118°27'5 2.2
2015-Aug-24 14:15N 33°50' W 118°24'3 4.0
2015-Aug-24 13:33N 33°51' W 118°27'3 0.3
2015-Aug-24 04:19N 33°51' W 118°24'1 0.7
2015-Aug-24 03:33N 33°51' W 118°24'1 0.5
2015-Aug-24 02:31N 33°51' W 118°24'0 0.0
2015-Aug-24 01:33N 33°51' W 118°24'0 0.0
2015-Aug-24 00:32N 33°51' W 118°24'6 4.7
2015-Aug-23 23:19N 33°52' W 118°30'6 6.1
2015-Aug-23 22:23N 33°51' W 118°24'0 0.0
2015-Aug-23 21:23N 33°51' W 118°24'0 0.0
2015-Aug-23 20:32N 33°51' W 118°24'0 0.0
2015-Aug-23 19:17N 33°51' W 118°24'0 0.0
2015-Aug-23 18:23N 33°51' W 118°24'0 0.0
2015-Aug-23 17:29N 33°51' W 118°24'0 0.0
2015-Aug-23 16:17N 33°51' W 118°24'0 0.0
2015-Aug-23 15:11N 33°51' W 118°24'0 0.0
2015-Aug-23 14:11N 33°51' W 118°24'0 0.0
2015-Aug-23 13:32N 33°51' W 118°24'0 0.0
2015-Aug-23 12:29N 33°51' W 118°24'0 0.0
2015-Aug-23 11:05N 33°51' W 118°24'0 0.0
2015-Aug-23 02:30N 33°51' W 118°24'5 5.5
2015-Aug-23 01:33N 33°55' W 118°27'5 1.2
2015-Aug-22 21:20N 33°51' W 118°24'5 6.0
2015-Aug-22 20:32N 33°54' W 118°27'0 0.0
2015-Aug-22 16:18N 33°54' W 118°27'1 0.3
2015-Aug-22 14:22N 33°54' W 118°27'4 0.8
2015-Aug-22 09:26N 33°51' W 118°24'0 0.0
2015-Aug-22 08:32N 33°51' W 118°24'0 0.0
2015-Aug-22 07:26N 33°51' W 118°24'0 0.0
2015-Aug-22 04:20N 33°51' W 118°24'0 0.0
2015-Aug-22 01:28N 33°51' W 118°24'0 0.0
2015-Aug-22 00:13N 33°51' W 118°24'0 0.0
2015-Aug-21 23:31N 33°51' W 118°24'5 5.0
2015-Aug-21 22:28N 33°54' W 118°29'5 4.9
2015-Aug-21 21:33N 33°51' W 118°24'5 4.6
2015-Aug-21 20:33N 33°55' W 118°27'5 5.1
2015-Aug-21 19:31N 33°51' W 118°24'0 0.0
2015-Aug-21 18:25N 33°51' W 118°24'0 0.0
2015-Aug-21 12:25N 33°51' W 118°24'0 0.0
2015-Aug-21 11:19N 33°51' W 118°24'0 0.0
2015-Aug-21 10:31N 33°51' W 118°24'0 0.0
2015-Aug-21 03:13N 33°51' W 118°24'5 5.3
2015-Aug-21 02:19N 33°54' W 118°27'0 0.1
2015-Aug-20 20:32N 33°55' W 118°27'2 2.0
2015-Aug-20 19:34N 33°53' W 118°26'3 3.2
2015-Aug-20 18:32N 33°51' W 118°24'5 4.8
2015-Aug-20 17:24N 33°54' W 118°29'5 6.2
2015-Aug-20 16:33N 33°51' W 118°24'6 6.2
2015-Aug-20 15:33N 33°54' W 118°29'6 3.1
2015-Aug-20 13:33N 33°51' W 118°24'0 0.0
2015-Aug-20 12:05N 33°51' W 118°24'0 0.0
2015-Aug-20 11:29N 33°51' W 118°24'0 0.0
2015-Aug-20 10:32N 33°51' W 118°24'0 0.0
2015-Aug-20 09:20N 33°51' W 118°24'0 0.0
2015-Aug-20 08:26N 33°51' W 118°24'0 0.0
2015-Aug-20 07:26N 33°51' W 118°24'0 0.0
2015-Aug-20 06:32N 33°51' W 118°24'0 0.0
2015-Aug-20 05:23N 33°51' W 118°24'0 0.0
2015-Aug-19 23:32N 33°51' W 118°24'0 0.0
2015-Aug-19 22:08N 33°51' W 118°24'0 0.0
2015-Aug-19 21:20N 33°51' W 118°24'0 0.0
2015-Aug-19 20:14N 33°51' W 118°24'0 0.0
2015-Aug-19 19:29N 33°51' W 118°24'0 0.5
2015-Aug-19 18:33N 33°51' W 118°24'0 0.4
2015-Aug-19 17:29N 33°51' W 118°24'0 0.0
2015-Aug-19 16:33N 33°51' W 118°24'3 2.6
2015-Aug-19 15:33N 33°52' W 118°25'4 0.2
2015-Aug-18 22:21N 33°54' W 118°29'  

Dump ship's entire track history